createdAt,value
2019-06-10T00:01:40.832Z,49.83
2019-06-10T00:04:09.584Z,49.93
2019-06-10T00:06:35.618Z,50.28
2019-06-10T00:09:06.038Z,50.08
2019-06-10T00:11:32.151Z,50.27
2019-06-10T00:13:58.612Z,50.33
2019-06-10T00:16:24.982Z,50.32
2019-06-10T00:18:51.338Z,50.29
2019-06-10T00:21:17.713Z,50.22
2019-06-10T00:23:44.083Z,50.78
2019-06-10T00:26:12.642Z,50.04
2019-06-10T00:28:40.677Z,50.03
2019-06-10T00:31:07.135Z,50.03
2019-06-10T00:33:33.455Z,50.37
2019-06-10T00:36:03.693Z,50.39
2019-06-10T00:38:28.008Z,50.00
2019-06-10T00:40:54.345Z,50.41
2019-06-10T00:43:21.375Z,50.29
2019-06-10T00:45:48.302Z,50.54
2019-06-10T00:48:25.215Z,50.70
2019-06-10T00:50:43.632Z,50.37
2019-06-10T00:53:14.120Z,50.48
2019-06-10T00:55:41.555Z,50.37
2019-06-10T00:58:07.579Z,50.81
2019-06-10T01:00:35.274Z,50.93
2019-06-10T01:03:02.398Z,51.37
2019-06-10T01:05:30.941Z,50.41
2019-06-10T01:07:57.092Z,50.79
2019-06-10T01:10:23.417Z,50.67
2019-06-10T01:12:51.345Z,50.21
2019-06-10T01:15:17.872Z,50.28
2019-06-10T01:17:44.258Z,50.92
2019-06-10T01:20:14.392Z,50.57
2019-06-10T01:22:41.067Z,50.72
2019-06-10T01:25:07.304Z,50.48
2019-06-10T01:27:33.645Z,50.96
2019-06-10T01:30:01.725Z,50.79
2019-06-10T01:32:28.216Z,50.83
2019-06-10T01:34:54.553Z,50.98
2019-06-10T01:37:21.824Z,51.15
2019-06-10T01:39:48.537Z,51.62
2019-06-10T01:42:15.865Z,51.52
2019-06-10T01:44:43.221Z,51.51
2019-06-10T01:47:14.329Z,51.06
2019-06-10T01:49:41.279Z,51.61
2019-06-10T01:52:09.348Z,51.35
2019-06-10T01:54:36.614Z,51.28
2019-06-10T01:57:02.936Z,51.76
2019-06-10T01:59:31.117Z,52.06
2019-06-10T02:02:00.962Z,52.30
2019-06-10T02:04:27.853Z,52.59
2019-06-10T02:06:54.181Z,52.66
2019-06-10T02:09:23.030Z,52.48
2019-06-10T02:11:48.740Z,52.81
2019-06-10T02:14:17.862Z,52.96
2019-06-10T02:16:43.611Z,53.19
2019-06-10T02:19:13.791Z,53.45
2019-06-10T02:21:38.367Z,52.88
2019-06-10T02:24:04.732Z,53.11
2019-06-10T02:26:41.096Z,53.51
2019-06-10T02:29:07.506Z,53.46
2019-06-10T02:31:37.267Z,53.75
2019-06-10T02:34:02.769Z,53.99
2019-06-10T02:36:35.448Z,53.89
2019-06-10T02:38:57.457Z,54.43
2019-06-10T02:41:31.656Z,54.52
2019-06-10T02:43:53.375Z,54.71
2019-06-10T02:46:24.532Z,54.54
2019-06-10T02:48:48.246Z,53.87
2019-06-10T02:51:15.814Z,54.50
2019-06-10T02:53:43.737Z,54.64
2019-06-10T02:56:12.606Z,54.70
2019-06-10T03:01:06.873Z,54.60
2019-06-10T03:03:42.669Z,54.30
2019-06-10T03:06:06.615Z,53.47
2019-06-10T03:08:32.779Z,53.58
2019-06-10T03:11:03.766Z,53.25
2019-06-10T03:13:30.313Z,52.78
2019-06-10T03:16:15.700Z,52.84
2019-06-10T03:18:43.391Z,52.58
2019-06-10T03:21:12.243Z,52.50
2019-06-10T03:23:38.278Z,52.70
2019-06-10T03:26:04.603Z,52.31
2019-06-10T03:28:32.075Z,52.61
2019-06-10T03:30:59.214Z,51.74
2019-06-10T03:33:31.495Z,52.14
2019-06-10T03:35:55.549Z,52.00
2019-06-10T03:38:23.667Z,52.02
2019-06-10T03:40:52.341Z,51.13
2019-06-10T03:43:18.756Z,51.68
2019-06-10T03:45:45.541Z,51.57
2019-06-10T03:48:13.124Z,50.68
2019-06-10T03:50:40.087Z,51.01
2019-06-10T03:53:06.420Z,50.80
2019-06-10T03:55:33.184Z,50.31
2019-06-10T03:58:02.151Z,50.09
2019-06-10T04:00:28.930Z,50.07
2019-06-10T04:02:55.459Z,50.19
2019-06-10T04:05:23.918Z,50.03
2019-06-10T04:07:50.058Z,49.78
2019-06-10T04:10:17.539Z,50.00
2019-06-10T04:12:43.961Z,49.96
2019-06-10T04:15:12.290Z,50.16
2019-06-10T04:17:38.866Z,49.71
2019-06-10T04:20:11.559Z,49.61
2019-06-10T04:22:33.758Z,49.24
2019-06-10T04:25:02.805Z,49.38
2019-06-10T04:27:28.530Z,49.62
2019-06-10T04:29:55.005Z,49.93
2019-06-10T04:32:23.114Z,49.78
2019-06-10T04:34:49.612Z,50.20
2019-06-10T04:37:15.929Z,50.14
2019-06-10T04:39:42.757Z,49.60
2019-06-10T04:42:09.184Z,49.67
2019-06-10T04:44:35.851Z,49.99
2019-06-10T04:47:02.840Z,49.15
2019-06-10T04:49:29.811Z,49.08
2019-06-10T04:51:57.255Z,49.05
2019-06-10T04:54:26.312Z,48.25
2019-06-10T04:56:52.957Z,48.00
2019-06-10T04:59:19.323Z,48.23
2019-06-10T05:01:46.063Z,48.28
2019-06-10T05:04:12.748Z,48.70
2019-06-10T05:06:39.205Z,48.12
2019-06-10T05:09:05.877Z,48.15
2019-06-10T05:11:33.076Z,48.40
2019-06-10T05:13:59.700Z,47.16
2019-06-10T05:16:30.071Z,46.70
2019-06-10T05:18:54.970Z,46.77
2019-06-10T05:21:24.542Z,46.08
2019-06-10T05:23:52.110Z,45.75
2019-06-10T05:26:18.405Z,45.87
2019-06-10T05:28:46.117Z,46.19
2019-06-10T05:31:13.578Z,46.03
2019-06-10T05:33:42.582Z,45.49
2019-06-10T05:36:10.205Z,45.71
2019-06-10T05:38:36.665Z,46.00
2019-06-10T05:41:03.179Z,45.49
2019-06-10T05:43:29.700Z,46.13
2019-06-10T05:45:56.469Z,46.39
2019-06-10T05:48:24.997Z,46.12
2019-06-10T05:51:00.217Z,45.67
2019-06-10T05:53:19.296Z,46.48
2019-06-10T05:55:45.630Z,46.47
2019-06-10T05:58:12.908Z,46.23
2019-06-10T06:00:39.448Z,46.66
2019-06-10T06:03:05.819Z,46.27
2019-06-10T06:05:36.092Z,46.43
2019-06-10T06:08:08.223Z,46.81
2019-06-10T06:10:29.919Z,46.92
2019-06-10T06:12:56.263Z,47.51
2019-06-10T06:15:22.597Z,46.50
2019-06-10T06:18:05.019Z,45.94
2019-06-10T06:20:17.963Z,45.36
2019-06-10T06:22:44.304Z,44.35
2019-06-10T06:25:15.161Z,44.42
2019-06-10T06:27:41.936Z,43.84
2019-06-10T06:30:15.081Z,43.92
2019-06-10T06:32:38.173Z,44.19
2019-06-10T06:35:05.233Z,44.09
2019-06-10T06:37:34.667Z,44.02
2019-06-10T06:40:02.628Z,43.83
2019-06-10T06:42:29.376Z,43.93
2019-06-10T06:44:55.863Z,43.75
2019-06-10T06:47:22.709Z,44.14
2019-06-10T06:49:49.322Z,43.43
2019-06-10T06:52:15.821Z,43.59
2019-06-10T06:54:42.561Z,43.16
2019-06-10T06:57:09.054Z,43.00
2019-06-10T06:59:37.302Z,42.69
2019-06-10T07:02:03.874Z,42.40
2019-06-10T07:04:32.692Z,41.03
2019-06-10T07:07:02.563Z,40.60
2019-06-10T07:09:33.138Z,40.64
2019-06-10T07:12:03.766Z,40.55
2019-06-10T07:14:34.344Z,41.26
2019-06-10T07:16:59.918Z,41.19
2019-06-10T07:19:26.276Z,41.37
2019-06-10T07:22:08.654Z,42.03
2019-06-10T07:24:23.011Z,41.48
2019-06-10T07:26:53.960Z,40.23
2019-06-10T07:29:17.569Z,38.72
2019-06-10T07:31:46.663Z,38.29
2019-06-10T07:34:13.193Z,38.31
2019-06-10T07:36:40.871Z,37.33
2019-06-10T07:39:07.937Z,36.50
2019-06-10T07:41:35.627Z,35.99
2019-06-10T07:44:04.326Z,35.82
2019-06-10T07:46:33.089Z,35.49
2019-06-10T07:48:59.063Z,36.09
2019-06-10T07:51:25.375Z,35.25
2019-06-10T07:53:52.589Z,34.83
2019-06-10T07:56:19.482Z,34.74
2019-06-10T07:58:47.636Z,34.59
2019-06-10T08:01:14.193Z,34.85
2019-06-10T08:03:41.800Z,34.72
2019-06-10T08:06:12.452Z,33.76
2019-06-10T08:08:38.849Z,33.79
2019-06-10T08:11:05.587Z,33.18
2019-06-10T08:13:33.069Z,32.22
2019-06-10T08:15:59.389Z,32.36
2019-06-10T08:18:25.754Z,32.36
2019-06-10T08:20:52.878Z,32.41
2019-06-10T08:23:19.581Z,32.62
2019-06-10T08:25:53.343Z,32.98
2019-06-10T08:28:15.492Z,33.43
2019-06-10T08:30:45.903Z,34.12
2019-06-10T08:33:13.796Z,33.87
2019-06-10T08:35:49.457Z,33.64
2019-06-10T08:38:09.181Z,33.47
2019-06-10T08:40:36.324Z,33.04
2019-06-10T08:43:04.862Z,32.85
2019-06-10T08:45:33.324Z,32.76
2019-06-10T08:47:59.679Z,32.48
2019-06-10T08:50:26.322Z,33.28
2019-06-10T08:53:09.175Z,32.79
2019-06-10T08:55:22.866Z,32.98
2019-06-10T08:57:51.630Z,33.86
2019-06-10T09:00:23.282Z,34.13
2019-06-10T09:02:50.222Z,33.82
2019-06-10T09:05:19.208Z,33.42
2019-06-10T09:07:49.600Z,33.02
2019-06-10T09:10:16.871Z,33.55
2019-06-10T09:12:46.083Z,34.53
2019-06-10T09:15:13.093Z,35.29
2019-06-10T09:17:40.195Z,35.16
2019-06-10T09:20:09.055Z,34.11
2019-06-10T09:22:35.505Z,33.74
2019-06-10T09:25:03.938Z,34.15
2019-06-10T09:27:32.786Z,34.00
2019-06-10T09:29:59.669Z,34.76
2019-06-10T09:32:26.030Z,36.17
2019-06-10T09:34:57.121Z,36.36
2019-06-10T09:37:23.226Z,36.03
2019-06-10T09:39:58.037Z,35.86
2019-06-10T09:42:17.433Z,35.74
2019-06-10T09:44:47.164Z,36.21
2019-06-10T09:47:14.265Z,36.51
2019-06-10T09:49:45.347Z,37.08
2019-06-10T09:52:10.188Z,38.19
2019-06-10T09:54:36.552Z,38.98
2019-06-10T09:57:03.383Z,38.90
2019-06-10T09:59:32.131Z,39.13
2019-06-10T10:02:02.743Z,39.77
2019-06-10T10:04:26.475Z,40.39
2019-06-10T10:06:57.106Z,40.69
2019-06-10T10:09:23.195Z,41.44
2019-06-10T10:11:51.321Z,41.07
2019-06-10T10:14:18.295Z,42.61
2019-06-10T10:16:49.345Z,41.59
2019-06-10T10:19:13.284Z,41.40
2019-06-10T10:21:45.005Z,41.09
2019-06-10T10:24:12.347Z,41.18
2019-06-10T10:26:36.323Z,40.24
2019-06-10T10:29:03.145Z,38.82
2019-06-10T10:31:29.509Z,37.35
2019-06-10T10:33:56.144Z,36.08
2019-06-10T10:36:22.736Z,35.19
2019-06-10T10:38:50.746Z,34.47
2019-06-10T10:41:17.362Z,33.81
2019-06-10T10:43:46.848Z,34.40
2019-06-10T10:46:13.995Z,35.86
2019-06-10T10:48:40.355Z,35.83
2019-06-10T10:51:06.710Z,35.28
2019-06-10T10:53:33.228Z,34.45
2019-06-10T10:56:02.278Z,33.83
2019-06-10T10:58:28.656Z,33.56
2019-06-10T11:00:57.850Z,33.53
2019-06-10T11:03:23.769Z,33.85
2019-06-10T11:05:52.460Z,33.59
2019-06-10T11:08:18.497Z,33.81
2019-06-10T11:10:47.693Z,34.40
2019-06-10T11:13:13.902Z,33.33
2019-06-10T11:15:40.426Z,33.33
2019-06-10T11:18:07.832Z,34.12
2019-06-10T11:20:34.683Z,33.17
2019-06-10T11:23:02.919Z,34.01
2019-06-10T11:25:29.264Z,34.76
2019-06-10T11:27:57.282Z,34.99
2019-06-10T11:30:24.085Z,34.08
2019-06-10T11:32:53.549Z,33.15
2019-06-10T11:35:18.905Z,32.14
2019-06-10T11:37:45.236Z,30.54
2019-06-10T11:40:13.649Z,30.38
2019-06-10T11:42:43.334Z,30.96
2019-06-10T11:45:09.493Z,31.57
2019-06-10T11:47:35.844Z,30.98
2019-06-10T11:50:05.117Z,31.35
2019-06-10T11:52:33.613Z,30.81
2019-06-10T11:55:11.640Z,29.88
2019-06-10T11:57:28.663Z,29.59
2019-06-10T11:59:56.563Z,30.78
2019-06-10T12:02:24.295Z,31.37
2019-06-10T12:04:53.208Z,30.99
2019-06-10T12:07:19.272Z,30.33
2019-06-10T12:09:45.849Z,30.74
2019-06-10T12:12:13.543Z,30.19
2019-06-10T12:14:40.315Z,30.40
2019-06-10T12:17:41.156Z,29.65
2019-06-10T12:19:35.338Z,28.39
2019-06-10T12:22:06.631Z,29.29
2019-06-10T12:24:33.161Z,27.50
2019-06-10T12:27:04.416Z,26.75
2019-06-10T12:29:29.443Z,24.41
2019-06-10T12:31:58.449Z,21.69
2019-06-10T12:34:24.088Z,21.25
2019-06-10T12:36:56.306Z,19.09
2019-06-10T12:39:22.790Z,17.21
2019-06-10T12:41:49.170Z,15.97
2019-06-10T12:44:15.787Z,14.31
2019-06-10T12:46:44.406Z,14.11
2019-06-10T12:49:13.134Z,12.74
2019-06-10T12:51:39.890Z,12.08
2019-06-10T12:54:07.582Z,12.42
2019-06-10T12:56:36.640Z,12.71
2019-06-10T12:59:09.333Z,11.22
2019-06-10T13:01:33.019Z,11.48
2019-06-10T13:04:04.863Z,12.04
2019-06-10T13:06:32.435Z,13.21
2019-06-10T13:09:06.287Z,15.68
2019-06-10T13:11:35.808Z,18.58
2019-06-10T13:14:06.120Z,20.04
2019-06-10T13:16:34.319Z,20.14
2019-06-10T13:19:03.283Z,22.23
2019-06-10T13:21:29.155Z,24.70
2019-06-10T13:23:57.939Z,25.19
2019-06-10T13:26:24.259Z,26.06
2019-06-10T13:28:52.481Z,25.81
2019-06-10T13:31:20.486Z,25.37
2019-06-10T13:33:48.264Z,25.12
2019-06-10T13:36:15.038Z,25.46
2019-06-10T13:38:42.787Z,24.12
2019-06-10T13:41:09.761Z,22.55
2019-06-10T13:43:36.323Z,22.45
2019-06-10T13:46:07.017Z,21.59
2019-06-10T13:48:32.177Z,22.04
2019-06-10T13:50:59.162Z,23.17
2019-06-10T13:53:25.489Z,24.13
2019-06-10T13:56:02.638Z,26.47
2019-06-10T13:58:22.930Z,27.71
2019-06-10T14:00:49.403Z,28.35
2019-06-10T14:03:16.383Z,28.39
2019-06-10T14:05:44.729Z,29.15
2019-06-10T14:08:15.124Z,28.71
2019-06-10T14:10:42.972Z,28.57
2019-06-10T14:13:13.391Z,27.97
2019-06-10T14:15:38.160Z,28.10
2019-06-10T14:18:07.000Z,29.66
2019-06-10T14:20:35.986Z,30.34
2019-06-10T14:23:01.416Z,30.97
2019-06-10T14:25:29.182Z,31.71
2019-06-10T14:27:55.608Z,32.87
2019-06-10T14:30:23.062Z,32.39
2019-06-10T14:32:53.327Z,33.67
2019-06-10T14:35:22.858Z,33.16
2019-06-10T14:37:49.954Z,33.39
2019-06-10T14:40:25.190Z,32.79
2019-06-10T14:42:56.773Z,32.20
2019-06-10T14:45:23.289Z,31.09
2019-06-10T14:47:49.963Z,29.21
2019-06-10T14:50:17.545Z,27.30
2019-06-10T14:52:43.986Z,28.20
2019-06-10T14:55:11.901Z,28.97
2019-06-10T14:57:39.287Z,29.23
2019-06-10T15:00:07.631Z,29.00
2019-06-10T15:02:34.181Z,29.20
2019-06-10T15:05:04.957Z,29.20
2019-06-10T15:07:33.037Z,29.72
2019-06-10T15:09:59.827Z,30.86
2019-06-10T15:12:26.159Z,30.73
2019-06-10T15:14:52.495Z,30.79
2019-06-10T15:17:22.508Z,30.64
2019-06-10T15:19:48.868Z,30.60
2019-06-10T15:22:16.977Z,30.40
2019-06-10T15:24:43.508Z,30.21
2019-06-10T15:27:18.723Z,30.38
2019-06-10T15:29:38.293Z,30.25
2019-06-10T15:32:14.066Z,29.80
2019-06-10T15:34:32.893Z,30.49
2019-06-10T15:36:59.320Z,30.19
2019-06-10T15:39:25.664Z,31.02
2019-06-10T15:41:52.416Z,30.53
2019-06-10T15:44:40.421Z,29.87
2019-06-10T15:46:47.119Z,30.12
2019-06-10T15:49:19.272Z,29.47
2019-06-10T15:51:44.124Z,28.31
2019-06-10T15:54:13.047Z,25.83
2019-06-10T15:56:48.653Z,25.57
2019-06-10T15:59:07.750Z,24.43
2019-06-10T16:01:34.101Z,24.76
2019-06-10T16:04:00.509Z,24.79
2019-06-10T16:06:30.064Z,25.31
2019-06-10T16:08:56.402Z,23.83
2019-06-10T16:11:26.775Z,20.55
2019-06-10T16:13:53.207Z,18.28
2019-06-10T16:16:20.939Z,16.68
2019-06-10T16:18:47.466Z,16.05
2019-06-10T16:21:15.621Z,17.25
2019-06-10T16:23:44.692Z,17.43
2019-06-10T16:26:13.128Z,17.60
2019-06-10T16:28:42.708Z,16.82
2019-06-10T16:31:09.446Z,17.25
2019-06-10T16:33:38.607Z,16.89
2019-06-10T16:36:05.254Z,18.26
2019-06-10T16:38:32.860Z,17.38
2019-06-10T16:41:04.433Z,18.21
2019-06-10T16:43:33.217Z,17.09
2019-06-10T16:45:59.148Z,17.68
2019-06-10T16:48:25.823Z,17.39
2019-06-10T16:50:54.298Z,17.25
2019-06-10T16:53:24.156Z,17.77
2019-06-10T16:55:48.786Z,17.77
2019-06-10T16:58:15.181Z,19.88
2019-06-10T17:00:43.268Z,21.54
2019-06-10T17:03:09.756Z,22.69
2019-06-10T17:05:36.110Z,23.24
2019-06-10T17:08:05.966Z,24.09
2019-06-10T17:10:34.475Z,24.55
2019-06-10T17:13:05.839Z,24.38
2019-06-10T17:15:32.365Z,25.88
2019-06-10T17:18:02.661Z,26.02
2019-06-10T17:20:29.772Z,26.80
2019-06-10T17:22:59.266Z,27.17
2019-06-10T17:25:26.928Z,28.59
2019-06-10T17:27:54.080Z,29.57
2019-06-10T17:30:23.671Z,30.09
2019-06-10T17:32:49.249Z,31.19
2019-06-10T17:35:16.003Z,31.86
2019-06-10T17:37:43.182Z,32.66
2019-06-10T17:40:10.210Z,32.21
2019-06-10T17:42:38.328Z,32.32
2019-06-10T17:45:05.467Z,32.72
2019-06-10T17:47:34.490Z,32.91
2019-06-10T17:50:02.359Z,32.97
2019-06-10T17:52:32.842Z,33.94
2019-06-10T17:54:58.725Z,33.25
2019-06-10T17:57:27.102Z,33.06
2019-06-10T17:59:53.558Z,34.57
2019-06-10T18:02:20.012Z,34.58
2019-06-10T18:04:46.360Z,37.19
2019-06-10T18:07:13.186Z,38.20
2019-06-10T18:09:39.651Z,39.33
2019-06-10T18:12:06.378Z,40.00
2019-06-10T18:14:36.193Z,40.41
2019-06-10T18:17:03.249Z,40.05
2019-06-10T18:19:34.197Z,39.92
2019-06-10T18:21:59.568Z,39.93
2019-06-10T18:24:27.861Z,39.63
2019-06-10T18:26:54.478Z,42.05
2019-06-10T18:29:23.013Z,42.45
2019-06-10T18:31:49.177Z,41.45
2019-06-10T18:34:15.646Z,43.44
2019-06-10T18:36:42.767Z,42.10
2019-06-10T18:39:12.235Z,44.31
2019-06-10T18:41:40.097Z,43.91
2019-06-10T18:44:19.772Z,44.80
2019-06-10T18:46:36.433Z,44.61
2019-06-10T18:49:03.376Z,45.63
2019-06-10T18:51:29.802Z,46.43
2019-06-10T18:53:56.421Z,46.38
2019-06-10T18:56:23.187Z,44.09
2019-06-10T18:58:49.843Z,45.01
2019-06-10T19:01:16.289Z,45.46
2019-06-10T19:03:42.921Z,45.35
2019-06-10T19:06:12.322Z,45.16
2019-06-10T19:08:39.339Z,45.18
2019-06-10T19:11:11.304Z,45.82
2019-06-10T19:13:39.129Z,46.05
2019-06-10T19:16:06.201Z,45.93
2019-06-10T19:18:33.921Z,45.94
2019-06-10T19:21:03.553Z,46.21
2019-06-10T19:23:30.152Z,47.76
2019-06-10T19:25:56.812Z,48.82
2019-06-10T19:28:46.752Z,48.23
2019-06-10T19:31:13.400Z,49.86
2019-06-10T19:33:41.334Z,50.96
2019-06-10T19:36:08.027Z,50.95
2019-06-10T19:38:35.502Z,51.39
2019-06-10T19:41:02.873Z,51.16
2019-06-10T19:43:29.308Z,51.97
2019-06-10T19:45:55.696Z,52.37
2019-06-10T19:48:22.439Z,51.65
2019-06-10T19:50:51.288Z,51.86
2019-06-10T19:53:17.812Z,52.60
2019-06-10T19:55:45.989Z,52.48
2019-06-10T19:58:13.404Z,52.94
2019-06-10T20:00:41.548Z,53.40
2019-06-10T20:03:09.893Z,53.56
2019-06-10T20:05:36.290Z,53.27
2019-06-10T20:08:03.177Z,53.16
2019-06-10T20:10:32.261Z,52.91
2019-06-10T20:12:58.568Z,53.79
2019-06-10T20:15:25.133Z,53.73
2019-06-10T20:17:52.588Z,53.50
2019-06-10T20:20:22.692Z,54.51
2019-06-10T20:22:48.493Z,55.01
2019-06-10T20:25:15.231Z,56.91
2019-06-10T20:27:45.502Z,59.40
2019-06-10T20:30:23.744Z,57.85
2019-06-10T20:32:46.489Z,54.46
2019-06-10T20:35:12.570Z,59.74
2019-06-10T20:37:39.618Z,72.44
2019-06-10T20:40:06.817Z,79.71
2019-06-10T20:42:33.387Z,83.79
2019-06-10T20:45:04.674Z,83.58
2019-06-10T20:47:29.600Z,82.74
2019-06-10T20:49:56.381Z,86.24
2019-06-10T20:52:23.092Z,86.03
2019-06-10T20:54:53.210Z,86.29
2019-06-10T20:57:22.532Z,85.56
2019-06-10T20:59:49.806Z,82.78
2019-06-10T21:02:17.250Z,82.38
2019-06-10T21:04:45.562Z,81.53
2019-06-10T21:07:13.297Z,80.94
2019-06-10T21:09:42.026Z,81.92
2019-06-10T21:12:09.307Z,81.63
2019-06-10T21:14:36.515Z,81.52
2019-06-10T21:17:03.255Z,82.00
2019-06-10T21:19:30.299Z,81.29
2019-06-10T21:21:56.646Z,79.40
2019-06-10T21:24:24.738Z,75.54
2019-06-10T21:26:54.766Z,77.13
2019-06-10T21:29:20.517Z,78.76
2019-06-10T21:31:54.483Z,78.38
2019-06-10T21:34:22.418Z,78.66
2019-06-10T21:36:49.506Z,78.85
2019-06-10T21:39:16.497Z,78.85
2019-06-10T21:41:45.243Z,79.42
2019-06-10T21:44:13.163Z,79.17
2019-06-10T21:46:39.445Z,78.06
2019-06-10T21:49:06.752Z,77.39
2019-06-10T21:51:34.662Z,77.71
2019-06-10T21:54:03.056Z,77.68
2019-06-10T21:56:29.537Z,76.44
2019-06-10T21:58:55.903Z,75.47
2019-06-10T22:01:22.690Z,73.82
2019-06-10T22:03:59.985Z,74.90
2019-06-10T22:06:19.962Z,74.16
2019-06-10T22:08:47.718Z,73.67
2019-06-10T22:11:14.179Z,74.43
2019-06-10T22:13:41.038Z,73.83
2019-06-10T22:16:07.666Z,75.67
2019-06-10T22:18:34.037Z,74.92
2019-06-10T22:21:02.788Z,74.59
2019-06-10T22:23:28.694Z,76.81
2019-06-10T22:25:57.546Z,77.30
2019-06-10T22:28:23.709Z,77.20
2019-06-10T22:30:52.580Z,76.02
2019-06-10T22:33:18.496Z,75.82
2019-06-10T22:35:45.449Z,75.66
2019-06-10T22:38:13.129Z,75.62
2019-06-10T22:40:39.871Z,74.32
2019-06-10T22:43:07.725Z,75.46
2019-06-10T22:45:34.419Z,74.58
2019-06-10T22:48:02.897Z,75.23
2019-06-10T22:50:29.340Z,75.51
2019-06-10T22:52:57.466Z,74.63
2019-06-10T22:55:24.063Z,74.87
2019-06-10T22:57:54.703Z,75.16
2019-06-10T23:00:22.101Z,75.66
2019-06-10T23:02:48.252Z,75.59
2019-06-10T23:05:17.485Z,75.90
2019-06-10T23:07:43.959Z,75.82
2019-06-10T23:10:12.341Z,76.76
2019-06-10T23:12:38.624Z,76.46
2019-06-10T23:15:05.990Z,76.61
2019-06-10T23:17:32.342Z,76.24
2019-06-10T23:19:59.760Z,76.39
2019-06-10T23:22:26.377Z,76.96
2019-06-10T23:24:53.595Z,78.43
2019-06-10T23:27:22.188Z,80.70
2019-06-10T23:29:48.418Z,82.17
2019-06-10T23:32:15.315Z,82.58
2019-06-10T23:34:42.258Z,81.41
2019-06-10T23:37:09.008Z,80.86
2019-06-10T23:39:35.355Z,80.83
2019-06-10T23:42:03.953Z,80.59
2019-06-10T23:44:29.946Z,79.83
2019-06-10T23:46:57.371Z,79.31
2019-06-10T23:49:24.678Z,79.03
2019-06-10T23:51:54.068Z,78.48
2019-06-10T23:54:19.260Z,77.35
2019-06-10T23:56:45.707Z,77.31
2019-06-10T23:59:12.167Z,76.94
